Flight Track Log - Related Links

Times and Time Zones

All times are in EDT time to prevent confusion due to time zone crossing. See the AMF1026 flight status page for this flight to view local times or setup timezone preferences in your user account.

Time Position Orientation Groundspeed Altitude Reporting Facility
EDT Latitude Longitude Course Direction KTS MPH feet Rate Location/Type
Tue 09:06:53 PM 42.7256 -73.8108 187° South 136 157 1,100  Level Boston Center
Tue 09:08:00 PM 42.6797 -73.8183 187° South 182 209 3,000 1,686 Climbing Boston Center
Tue 09:09:26 PM 42.6931 -73.9231 280° West 203 234 5,400 1,644 Climbing Boston Center
Tue 09:10:26 PM 42.7064 -73.9997 283° West 203 234 7,000 1,364 Climbing Boston Center
Tue 09:11:38 PM 42.7011 -74.0786 265° West 203 234 8,400 1,500 Climbing Boston Center
Tue 09:12:38 PM 42.6958 -74.1661 265° West 202 232 10,300 1,550 Climbing Boston Center
Tue 09:13:38 PM 42.6758 -74.2419 250° West 202 232 11,500 1,250 Climbing Boston Center
Tue 09:14:38 PM 42.6622 -74.3150 256° West 207 238 12,800 1,200 Climbing Boston Center
Tue 09:15:38 PM 42.6586 -74.3967 267° West 207 238 13,900 1,150 Climbing Boston Center
Tue 09:16:38 PM 42.6511 -74.4756 263° West 214 246 15,100 1,000 Climbing Boston Center
Tue 09:17:38 PM 42.6311 -74.5453 249° West 214 246 15,900 450 Climbing Boston Center
Tue 09:18:38 PM 42.5983 -74.6233 240° Southwest 225 259 16,000 50 Climbing Boston Center
Tue 09:19:38 PM 42.5742 -74.6900 244° Southwest 243 280 16,000  Level Boston Center
Tue 09:20:38 PM 42.5447 -74.8017 250° West 263 303 16,000  Level Boston Center
Tue 09:21:38 PM 42.5281 -74.8911 256° West 263 303 16,000  Level Boston Center
Tue 09:22:38 PM 42.5178 -74.9867 262° West 258 297 16,000  Level Boston Center
Tue 09:23:38 PM 42.5072 -75.0764 261° West 258 297 16,000  Level Boston Center
Tue 09:24:38 PM 42.4867 -75.1628 252° West 253 291 16,000  Level Boston Center
Tue 09:26:17 PM 42.4406 -75.3000 246° West 243 280 16,000  Level New York Center
Tue 09:27:17 PM 42.4144 -75.3850 247° West 243 280 16,000  Level New York Center
Tue 09:28:15 PM 42.3822 -75.4669 242° Southwest 248 285 16,000  Level New York Center
Tue 09:29:16 PM 42.3458 -75.5431 237° Southwest 248 285 16,000  Level New York Center
Tue 09:30:16 PM 42.3114 -75.6244 240° Southwest 248 285 16,000  Level New York Center
Tue 09:31:17 PM 42.2789 -75.7064 242° Southwest 248 285 16,000  Level New York Center
Tue 09:32:18 PM 42.2542 -75.7942 249° West 253 291 16,000  Level New York Center
Tue 09:33:16 PM 42.2297 -75.8817 249° West 253 291 16,000  Level New York Center
Tue 09:34:17 PM 42.2092 -75.9697 253° West 248 285 16,000  Level New York Center
Tue 09:35:18 PM 42.1847 -76.0547 249° West 248 285 16,000  Level New York Center
Tue 09:36:16 PM 42.1519 -76.1386 242° Southwest 248 285 16,000  Level New York Center
Tue 09:37:17 PM 42.1167 -76.2253 241° Southwest 253 291 16,000  Level New York Center
Tue 09:38:16 PM 42.0817 -76.3061 240° Southwest 253 291 16,000  Level New York Center
Tue 09:39:17 PM 42.0444 -76.3897 239° Southwest 259 298 16,000  Level New York Center
Tue 09:40:16 PM 42.0050 -76.4728 237° Southwest 259 298 16,000  Level New York Center
Tue 09:41:16 PM 41.9700 -76.5536 240° Southwest 259 298 16,000  Level New York Center
Tue 09:42:17 PM 41.9325 -76.6367 239° Southwest 259 298 16,000  Level New York Center
Tue 09:43:16 PM 41.9011 -76.7231 244° Southwest 259 298 16,000  Level New York Center
Tue 09:44:16 PM 41.8697 -76.8094 244° Southwest 259 298 16,000  Level New York Center
Tue 09:45:16 PM 41.8386 -76.8928 243° Southwest 259 298 16,000  Level New York Center
Tue 09:46:17 PM 41.8089 -76.9792 245° Southwest 259 298 16,000  Level New York Center
Tue 09:48:21 PM 41.7633 -77.1700 252° West 256 295 16,000  Level Cleveland Center
Tue 09:49:21 PM 41.7472 -77.2600 257° West 251 289 16,000  Level Cleveland Center
Tue 09:50:21 PM 41.7267 -77.3472 253° West 251 289 16,000  Level Cleveland Center
Tue 09:51:21 PM 41.7019 -77.4319 249° West 246 283 16,000  Level Cleveland Center
Tue 09:52:21 PM 41.6772 -77.5194 249° West 246 283 16,000  Level Cleveland Center
Tue 09:53:21 PM 41.6481 -77.5986 244° Southwest 251 289 16,000  Level Cleveland Center
Tue 09:54:21 PM 41.6125 -77.6753 238° Southwest 251 289 16,000  Level Cleveland Center
Tue 09:55:21 PM 41.5811 -77.7544 242° Southwest 251 289 16,000  Level Cleveland Center
Tue 09:56:21 PM 41.5519 -77.8361 245° Southwest 251 289 16,000  Level Cleveland Center
Tue 09:57:21 PM 41.5308 -77.9175 251° West 240 276 16,000  Level Cleveland Center
Tue 09:58:21 PM 41.5078 -78.0017 250° West 240 276 16,000  Level Cleveland Center
Tue 09:59:21 PM 41.4806 -78.0858 247° West 235 270 16,000  Level Cleveland Center
Tue 10:00:21 PM 41.4531 -78.1672 246° West 240 276 16,000  Level Cleveland Center
Tue 10:01:21 PM 41.4256 -78.2458 245° Southwest 240 276 16,000  Level Cleveland Center
Tue 10:02:21 PM 41.4042 -78.3242 250° West 240 276 16,000  Level Cleveland Center
Tue 10:03:21 PM 41.3806 -78.4053 249° West 240 276 16,000  Level Cleveland Center
Tue 10:04:21 PM 41.3553 -78.4919 249° West 245 282 16,000  Level Cleveland Center
Tue 10:05:21 PM 41.3317 -78.5756 249° West 245 282 16,000  Level Cleveland Center
Tue 10:06:21 PM 41.3122 -78.6592 253° West 245 282 16,000  Level Cleveland Center
Tue 10:07:21 PM 41.2886 -78.7400 249° West 245 282 16,000  Level Cleveland Center
Tue 10:08:21 PM 41.2647 -78.8208 249° West 245 282 16,000  Level Cleveland Center
Tue 10:09:21 PM 41.2431 -78.9042 251° West 245 282 16,000  Level Cleveland Center
Tue 10:10:21 PM 41.2172 -78.9878 248° West 245 282 16,000  Level Cleveland Center
Tue 10:12:21 PM 41.1694 -79.1653 250° West 250 288 16,000  Level Cleveland Center
Tue 10:13:21 PM 41.1456 -79.2486 249° West 250 288 16,000  Level Cleveland Center
Tue 10:14:21 PM 41.1319 -79.3317 258° West 250 288 16,000 -50 Level Cleveland Center
Tue 10:15:21 PM 41.1097 -79.4203 252° West 255 293 15,900 -50 Descending Cleveland Center
Tue 10:16:21 PM 41.0897 -79.5058 253° West 255 293 15,900  Level Cleveland Center
Tue 10:18:21 PM 41.0433 -79.6775 250° West 250 288 15,900  Level Cleveland Center
Tue 10:19:21 PM 41.0064 -79.7606 240° Southwest 255 293 15,900  Level Cleveland Center
Tue 10:20:21 PM 40.9653 -79.8381 235° Southwest 266 306 15,900  Level Cleveland Center
Tue 10:21:21 PM 40.9261 -79.9153 236° Southwest 266 306 15,900  Level Cleveland Center
Tue 10:22:21 PM 40.8869 -79.9981 238° Southwest 266 306 15,900 50 Level Cleveland Center
Tue 10:23:21 PM 40.8542 -80.0917 245° Southwest 261 300 16,000 50 Climbing Cleveland Center
Tue 10:24:21 PM 40.8294 -80.1825 250° West 256 295 16,000  Level Cleveland Center
Tue 10:25:21 PM 40.7983 -80.2703 245° Southwest 261 300 16,000  Level Cleveland Center
Tue 10:26:21 PM 40.7506 -80.3419 229° Southwest 261 300 16,000  Level Cleveland Center
Tue 10:27:21 PM 40.7111 -80.4242 238° Southwest 277 319 16,000  Level Cleveland Center
Tue 10:28:21 PM 40.6653 -80.5036 233° Southwest 271 312 16,000  Level Cleveland Center
Tue 10:29:21 PM 40.6217 -80.5803 233° Southwest 271 312 16,000  Level Cleveland Center
Tue 10:30:21 PM 40.5842 -80.6569 237° Southwest 271 312 16,000  Level Cleveland Center
Tue 10:31:21 PM 40.5422 -80.7361 235° Southwest 266 306 16,000  Level Cleveland Center
Tue 10:32:21 PM 40.5025 -80.8178 237° Southwest 266 306 16,000  Level Cleveland Center
Tue 10:33:21 PM 40.4608 -80.8942 234° Southwest 266 306 16,000  Level Cleveland Center
Tue 10:34:21 PM 40.4167 -80.9731 234° Southwest 266 306 16,000  Level Cleveland Center
Tue 10:35:21 PM 40.3725 -81.0492 233° Southwest 271 312 16,000  Level Cleveland Center
Tue 10:36:21 PM 40.3286 -81.1250 233° Southwest 271 312 16,000  Level Cleveland Center
Tue 10:37:21 PM 40.2822 -81.2008 231° Southwest 271 312 16,000  Level Cleveland Center
Tue 10:39:13 PM 40.2056 -81.3453 235° Southwest 263 303 16,000  Level Indianapolis Center
Tue 10:40:14 PM 40.1642 -81.4244 236° Southwest 262 302 16,000  Level Indianapolis Center
Tue 10:41:16 PM 40.1258 -81.5067 239° Southwest 263 303 16,000  Level Indianapolis Center
Tue 10:42:17 PM 40.0900 -81.5908 241° Southwest 262 302 16,000  Level Indianapolis Center
Tue 10:43:18 PM 40.0536 -81.6733 240° Southwest 261 300 16,000  Level Indianapolis Center
Tue 10:44:19 PM 40.0164 -81.7564 240° Southwest 262 302 16,000  Level Indianapolis Center
Tue 10:45:21 PM 39.9686 -81.8483 236° Southwest 262 302 16,000  Level Indianapolis Center
Tue 10:46:22 PM 39.9264 -81.9281 235° Southwest 265 305 16,000  Level Indianapolis Center
Tue 10:47:23 PM 39.9064 -82.0183 254° West 258 297 16,000  Level Indianapolis Center
Tue 10:48:24 PM 39.8878 -82.1103 255° West 261 300 16,000 -49 Level Indianapolis Center
Tue 10:49:25 PM 39.8672 -82.2008 254° West 259 298 15,900 -49 Descending Indianapolis Center
Tue 10:50:27 PM 39.8458 -82.2911 253° West 260 299 15,900  Level Indianapolis Center
Tue 10:51:28 PM 39.8139 -82.3786 245° Southwest 264 304 15,900  Level Indianapolis Center
Tue 10:53:31 PM 39.7528 -82.5528 246° West 266 306 15,900  Level Indianapolis Center
Tue 10:54:32 PM 39.7211 -82.6389 244° Southwest 263 303 15,900  Level Indianapolis Center
Tue 10:55:33 PM 39.6900 -82.7242 245° Southwest 261 300 15,900  Level Indianapolis Center
Tue 10:56:34 PM 39.6600 -82.8106 246° West 261 300 15,900  Level Indianapolis Center
Tue 10:57:36 PM 39.6286 -82.8969 245° Southwest 261 300 15,900  Level Indianapolis Center
Tue 10:58:37 PM 39.5972 -82.9825 245° Southwest 260 299 15,900  Level Indianapolis Center
Tue 10:59:38 PM 39.5653 -83.0686 244° Southwest 261 300 15,900  Level Indianapolis Center
Tue 11:00:40 PM 39.5331 -83.1550 244° Southwest 262 302 15,900  Level Indianapolis Center
Tue 11:01:41 PM 39.5022 -83.2419 245° Southwest 262 302 15,900 -148 Level Indianapolis Center
Tue 11:02:42 PM 39.4708 -83.3278 245° Southwest 261 300 15,600 -689 Descending Indianapolis Center
Tue 11:03:43 PM 39.4353 -83.4242 244° Southwest 290 334 14,500 -1,220 Descending Indianapolis Center
Tue 11:04:45 PM 39.4036 -83.5250 248° West 300 345 13,100 -1,366 Descending Indianapolis Center
Tue 11:05:46 PM 39.3747 -83.6225 249° West 289 333 11,700 -1,033 Descending Indianapolis Center
Tue 11:06:47 PM 39.3506 -83.7317 254° West 270 311 11,000 -390 Descending Indianapolis Center
Tue 11:07:49 PM 39.3319 -83.8197 255° West 254 292 10,900 -49 Descending Indianapolis Center
Tue 11:08:50 PM 39.3075 -83.9097 251° West 262 302 10,900  Level Indianapolis Center
Tue 11:09:51 PM 39.2822 -83.9994 250° West 262 302 10,900  Level Indianapolis Center
Tue 11:10:52 PM 39.2542 -84.0853 247° West 260 299 10,900  Level Indianapolis Center
Tue 11:11:54 PM 39.2250 -84.1719 247° West 261 300 10,900 -390 Level Indianapolis Center
Tue 11:12:55 PM 39.1950 -84.2575 246° West 260 299 10,100 -1,131 Descending Indianapolis Center
Tue 11:13:56 PM 39.1853 -84.3492 262° West 258 297 8,600 -1,426 Descending Indianapolis Center
Tue 11:14:57 PM 39.1822 -84.4414 268° West 256 295 7,200 -1,317 Descending Indianapolis Center
Tue 11:15:59 PM 39.1839 -84.5328 271° West 253 291 5,900 -1,512 Descending Indianapolis Center
Tue 11:17:00 PM 39.1886 -84.6114 274° West 229 264 4,100 -1,230 Descending Indianapolis Center
Tue 11:18:01 PM 39.1881 -84.6928 270° West 218 251 3,400 -919 Descending Indianapolis Center
Tue 11:19:04 PM 39.1333 -84.6833 172° South 104 120 2,200 -865 Descending Cincinnati TRACON
Tue 11:19:52 PM 39.1167 -84.6833 180° South 108 124 1,800 -556 Descending Cincinnati TRACON
Tue 11:20:52 PM 39.0833 -84.6833 180° South 115 132 1,200 -600 Descending Cincinnati TRACON
Tue 11:22:00 PM 39.0488 -84.6678 247° West  Level Estimated
Tue 11:29:00 PM 39.0488 -84.6678 247° West  Level Estimated
Tue 11:30:00 PM 39.0488 -84.6678 247° West  Level Estimated
Tue 11:31:00 PM 39.0488 -84.6678 247° West  Level Estimated
Tue 11:32:00 PM 39.0488 -84.6678 247° West  Level Estimated
Tue 11:33:00 PM 39.0488 -84.6678 247° West  Level Estimated
Tue 11:34:00 PM 39.0488 -84.6678 247° West  Level Estimated
Tue 11:35:00 PM 39.0488 -84.6678 247° West  Level Estimated

Login

Don't have an account? Register now (free) for customized features, flight alerts, and more!